Northtown, Illinois
Current Conditions -  °F | °C
As of 9:51 AM on Saturday 20 Dec 2014 (Local Time) from KORD Reporting Station
Overcast Overcast  
Wind Chill: 25°   Ceiling: 7000
Heat Index: 31°   Visibility: 7mi
Dew Point: 23°   Wind: 6mph
Humidity: 72%   Direction: 200°SSW
Pressure: 30.28"   Gusts: NA
Location:  41.991°N, 87.7047°W
Report Text: KORD 201551Z 20005KT 7SM FEW023 OVC070 M01/M05 A3028 RMK AO2 SLP261 T10061050
Loading
Personal Weather Stations






























Interactive Weather Map New forecast layout! Learn more

10-Day Weather Forecast

Advertisements
Track Severe Weather on mobile